Time;durP1;ratioP1;P1;durP2;ratioP2;P2;SDS_P1;SDS_P2;PMS_P1;PMS_P2;Temp;Humidity;BMP_temperature;BMP_pressure;BME280_temperature;BME280_humidity;BME280_pressure;Samples;Min_cycle;Max_cycle;Signal;HPM_P1;HPM_P2
2023/07/02 00:01:23;;;;;;;0.10;0.10;;;20.30;99.90;;;;;;5058451;28;20103;-73
2023/07/02 00:03:49;;;;;;;0.28;0.28;;;20.40;99.90;;;;;;5040617;28;20080;-72
2023/07/02 00:06:18;;;;;;;0.10;0.10;;;20.40;99.90;;;;;;5058672;28;20694;-76
2023/07/02 00:08:43;;;;;;;0.40;0.40;;;17.70;99.90;;;;;;5058701;28;20021;-73
2023/07/02 00:11:12;;;;;;;0.10;0.10;;;19.80;99.90;;;;;;5040532;28;20515;-73
2023/07/02 00:13:39;;;;;;;0.10;0.10;;;20.00;99.90;;;;;;5040085;28;20082;-73
2023/07/02 00:16:04;;;;;;;0.10;0.10;;;20.00;99.90;;;;;;5040225;28;20033;-73
2023/07/02 00:18:33;;;;;;;0.10;0.10;;;19.90;99.90;;;;;;5058285;28;20714;-76
2023/07/02 00:21:02;;;;;;;0.10;0.10;;;20.10;99.90;;;;;;5058403;28;20157;-73
2023/07/02 00:23:29;;;;;;;0.10;0.10;;;20.30;99.90;;;;;;5058421;28;20024;-76
2023/07/02 00:25:58;;;;;;;0.10;0.10;;;20.40;99.90;;;;;;5058519;28;20183;-73
2023/07/02 00:28:24;;;;;;;0.10;0.10;;;20.40;99.90;;;;;;5058316;28;20507;-75
2023/07/02 00:30:49;;;;;;;0.10;0.10;;;20.40;99.90;;;;;;5058074;28;20013;-78
2023/07/02 00:33:16;;;;;;;0.10;0.10;;;21.60;99.90;;;;;;5058316;28;20036;-75
2023/07/02 00:35:42;;;;;;;0.10;0.10;;;20.40;99.90;;;;;;5058230;28;20271;-75
2023/07/02 00:38:07;;;;;;;0.73;0.73;;;20.40;99.90;;;;;;5058267;28;20575;-75
2023/07/02 00:40:33;;;;;;;0.10;0.10;;;20.50;99.90;;;;;;5040479;28;20025;-76
2023/07/02 00:42:59;;;;;;;1.17;1.17;;;20.30;99.90;;;;;;5057876;28;20532;-76
2023/07/02 00:45:26;;;;;;;0.10;0.10;;;20.40;99.90;;;;;;5058546;28;20715;-72
2023/07/02 00:47:54;;;;;;;0.10;0.10;;;20.40;99.90;;;;;;5057656;28;20108;-74
2023/07/02 00:50:22;;;;;;;0.28;0.28;;;19.50;99.90;;;;;;5056465;28;20035;-73
2023/07/02 00:52:48;;;;;;;0.10;0.10;;;20.30;99.90;;;;;;5057555;28;20024;-73
2023/07/02 00:55:14;;;;;;;0.25;0.25;;;20.30;99.90;;;;;;5057775;28;20020;-75
2023/07/02 00:57:40;;;;;;;0.10;0.10;;;19.90;99.90;;;;;;5057845;28;20021;-76
2023/07/02 01:00:07;;;;;;;0.10;0.10;;;19.80;99.90;;;;;;5039802;28;20033;-86
2023/07/02 01:02:32;;;;;;;0.10;0.10;;;20.00;99.90;;;;;;5057485;28;20068;-78
2023/07/02 01:04:59;;;;;;;2.22;2.05;;;20.10;99.90;;;;;;5057600;28;20052;-84
2023/07/02 01:07:25;;;;;;;1.08;1.08;;;20.10;99.90;;;;;;5057802;28;20033;-84
2023/07/02 01:09:51;;;;;;;0.10;0.10;;;20.10;99.90;;;;;;5058125;28;20062;-85
2023/07/02 01:12:18;;;;;;;0.10;0.10;;;20.20;99.90;;;;;;5040004;28;20017;-85
2023/07/02 01:14:51;;;;;;;0.15;0.15;;;20.20;99.90;;;;;;5057604;28;20027;-86
2023/07/02 01:17:19;;;;;;;0.10;0.10;;;20.20;99.90;;;;;;5058307;28;20048;-83
2023/07/02 01:19:51;;;;;;;0.10;0.10;;;20.00;99.90;;;;;;5057667;28;20055;-76
2023/07/02 01:22:19;;;;;;;0.35;0.35;;;20.20;99.90;;;;;;5057934;28;20017;-80
2023/07/02 01:24:46;;;;;;;0.15;0.15;;;20.30;99.90;;;;;;5057863;28;20088;-83
2023/07/02 01:27:14;;;;;;;0.10;0.10;;;20.20;99.90;;;;;;5057496;28;20021;-84
2023/07/02 01:29:41;;;;;;;0.10;0.10;;;20.30;99.90;;;;;;5039661;28;20052;-84
2023/07/02 01:32:08;;;;;;;0.10;0.10;;;20.10;99.90;;;;;;5039773;28;20063;-84
2023/07/02 01:34:34;;;;;;;0.10;0.10;;;20.20;99.90;;;;;;5057394;28;20032;-72
2023/07/02 01:37:00;;;;;;;0.10;0.10;;;20.30;99.90;;;;;;5058374;28;20032;-85
2023/07/02 01:39:26;;;;;;;0.10;0.10;;;20.40;99.90;;;;;;5058908;28;20040;-82
2023/07/02 01:41:54;;;;;;;0.10;0.10;;;20.50;99.90;;;;;;5058234;28;20017;-80
2023/07/02 01:44:21;;;;;;;0.10;0.10;;;20.40;99.90;;;;;;5057915;28;20701;-82
2023/07/02 01:46:48;;;;;;;1.48;0.95;;;20.50;99.90;;;;;;5057988;28;20667;-83
2023/07/02 01:49:18;;;;;;;0.20;0.20;;;20.00;99.90;;;;;;5058022;28;20020;-81
2023/07/02 01:51:51;;;;;;;0.10;0.10;;;20.00;99.90;;;;;;5058301;28;20667;-85
2023/07/02 01:54:20;;;;;;;0.00;0.00;;;19.50;99.90;;;;;;5057552;28;20068;-82
2023/07/02 01:56:45;;;;;;;3.22;3.03;;;19.80;99.90;;;;;;5057369;28;20048;-73
2023/07/02 01:59:11;;;;;;;0.10;0.10;;;19.90;99.90;;;;;;5057188;28;20682;-74
2023/07/02 02:01:41;;;;;;;0.10;0.10;;;20.10;99.90;;;;;;5060291;28;20426;-84
2023/07/02 02:04:07;;;;;;;0.10;0.10;;;20.20;99.90;;;;;;5060918;28;20722;-86
2023/07/02 02:06:34;;;;;;;0.35;0.35;;;20.10;99.90;;;;;;5061303;28;20449;-78
2023/07/02 02:09:00;;;;;;;0.43;0.40;;;20.20;99.90;;;;;;5061157;28;20103;-77
2023/07/02 02:11:29;;;;;;;0.10;0.10;;;20.20;99.90;;;;;;5061210;28;20016;-73
2023/07/02 02:13:55;;;;;;;0.10;0.10;;;20.30;99.90;;;;;;5060851;28;20115;-84
2023/07/02 02:16:21;;;;;;;0.30;0.30;;;20.40;99.90;;;;;;5060968;28;20129;-83
2023/07/02 02:18:47;;;;;;;0.10;0.10;;;20.40;99.90;;;;;;5061027;28;20078;-81
2023/07/02 02:21:13;;;;;;;0.10;0.10;;;20.40;99.90;;;;;;5061001;28;20020;-86
2023/07/02 02:23:39;;;;;;;0.35;0.35;;;20.40;99.90;;;;;;5065172;28;20024;-81
2023/07/02 02:26:05;;;;;;;0.10;0.10;;;20.10;99.90;;;;;;5076182;28;20080;-87
2023/07/02 02:28:30;;;;;;;0.10;0.10;;;19.60;99.90;;;;;;5057864;28;20044;-83
2023/07/02 02:30:59;;;;;;;0.10;0.10;;;19.20;99.90;;;;;;5058914;28;20016;-85
2023/07/02 02:33:25;;;;;;;0.10;0.10;;;18.10;99.90;;;;;;5068520;28;20044;-85
2023/07/02 02:35:50;;;;;;;0.10;0.10;;;18.30;99.90;;;;;;5063990;28;20017;-76
2023/07/02 02:38:26;;;;;;;0.73;0.73;;;18.10;99.90;;;;;;5066264;28;20262;-87
2023/07/02 02:40:52;;;;;;;0.20;0.20;;;17.90;99.90;;;;;;5046851;28;20017;-90
2023/07/02 02:43:18;;;;;;;0.00;0.00;;;17.40;99.90;;;;;;5066457;28;20031;-92
2023/07/02 02:45:44;;;;;;;0.10;0.10;;;18.20;99.90;;;;;;5063556;28;20021;-89
2023/07/02 02:48:10;;;;;;;0.10;0.10;;;18.60;99.90;;;;;;5063048;28;20016;-83
2023/07/02 02:50:41;;;;;;;0.20;0.20;;;18.90;99.90;;;;;;5061799;28;20066;-86
2023/07/02 02:53:07;;;;;;;0.85;0.82;;;19.10;99.90;;;;;;5061436;28;20077;-74
2023/07/02 02:55:34;;;;;;;1.80;1.65;;;19.30;99.90;;;;;;5061046;28;20012;-88
2023/07/02 02:57:59;;;;;;;2.65;2.47;;;19.50;99.90;;;;;;5061507;28;20074;-82
2023/07/02 03:00:25;;;;;;;0.10;0.10;;;19.50;99.90;;;;;;5061023;28;20021;-85
2023/07/02 03:02:51;;;;;;;0.22;0.22;;;19.60;99.90;;;;;;5060756;28;20666;-74
2023/07/02 03:05:17;;;;;;;0.95;0.95;;;19.80;99.90;;;;;;5060990;28;20268;-86
2023/07/02 03:07:42;;;;;;;0.20;0.20;;;19.80;99.90;;;;;;5061420;28;20044;-86
2023/07/02 03:10:09;;;;;;;0.10;0.10;;;19.80;99.90;;;;;;5060751;28;20059;-74
2023/07/02 03:12:35;;;;;;;0.10;0.10;;;19.80;99.90;;;;;;5041922;28;20032;-87
2023/07/02 03:15:01;;;;;;;0.40;0.40;;;19.80;99.90;;;;;;5060245;28;20028;-85
2023/07/02 03:17:26;;;;;;;0.10;0.10;;;19.80;99.90;;;;;;5060292;28;20025;-81
2023/07/02 03:19:52;;;;;;;0.10;0.10;;;19.80;99.90;;;;;;5060086;28;20025;-86
2023/07/02 03:22:18;;;;;;;0.35;0.35;;;19.80;99.90;;;;;;5060652;28;20640;-84
2023/07/02 03:24:44;;;;;;;0.20;0.20;;;19.90;99.90;;;;;;5060676;28;20032;-77
2023/07/02 03:27:09;;;;;;;0.10;0.10;;;20.50;99.90;;;;;;5060272;28;20043;-86
2023/07/02 03:29:37;;;;;;;0.10;0.10;;;19.90;99.90;;;;;;5059578;28;20667;-75
2023/07/02 03:32:04;;;;;;;0.13;0.13;;;19.90;99.90;;;;;;5059314;28;20146;-72
2023/07/02 03:34:30;;;;;;;0.10;0.10;;;19.80;99.90;;;;;;5059455;28;20037;-75
2023/07/02 03:36:56;;;;;;;0.10;0.10;;;19.80;99.90;;;;;;5059407;28;20025;-75
2023/07/02 03:39:21;;;;;;;3.53;2.45;;;19.90;99.90;;;;;;5059537;28;20016;-74
2023/07/02 03:41:47;;;;;;;0.10;0.10;;;19.80;99.90;;;;;;5059938;28;20021;-74
2023/07/02 03:44:13;;;;;;;0.10;0.10;;;19.90;99.90;;;;;;5059783;28;20071;-81
2023/07/02 03:46:39;;;;;;;0.10;0.10;;;20.00;99.90;;;;;;5059549;28;20016;-73
2023/07/02 03:49:05;;;;;;;0.30;0.30;;;20.00;99.90;;;;;;5059114;28;20020;-75
2023/07/02 03:51:31;;;;;;;0.30;0.30;;;20.00;99.90;;;;;;5042599;28;20017;-83
2023/07/02 03:54:00;;;;;;;0.10;0.10;;;20.00;99.90;;;;;;5060231;28;20418;-86
2023/07/02 03:56:26;;;;;;;0.10;0.10;;;20.10;99.90;;;;;;5060374;28;20021;-84
2023/07/02 03:58:52;;;;;;;0.73;0.73;;;20.10;99.90;;;;;;5060425;28;20738;-80
2023/07/02 04:01:18;;;;;;;0.25;0.25;;;20.10;99.90;;;;;;5041852;28;20059;-86
2023/07/02 04:03:52;;;;;;;0.10;0.10;;;20.20;99.90;;;;;;5041160;28;20706;-86
2023/07/02 04:06:18;;;;;;;0.17;0.17;;;20.30;99.90;;;;;;5059883;28;20013;-87
2023/07/02 04:08:44;;;;;;;0.13;0.13;;;20.30;99.90;;;;;;5059840;28;20025;-85
2023/07/02 04:11:11;;;;;;;0.20;0.20;;;20.30;99.90;;;;;;5059726;28;20027;-80
2023/07/02 04:13:37;;;;;;;0.10;0.10;;;20.30;99.90;;;;;;5059601;28;20056;-81
2023/07/02 04:16:03;;;;;;;0.10;0.10;;;20.30;99.90;;;;;;5059866;28;20021;-87
2023/07/02 04:18:29;;;;;;;1.10;1.05;;;20.30;99.90;;;;;;5041872;28;20023;-74
2023/07/02 04:20:55;;;;;;;0.10;0.10;;;20.20;99.90;;;;;;5059613;28;20024;-84
2023/07/02 04:23:21;;;;;;;1.42;1.38;;;20.30;99.90;;;;;;5059818;28;20012;-82
2023/07/02 04:25:47;;;;;;;0.10;0.10;;;20.30;99.90;;;;;;5060168;28;20027;-87
2023/07/02 04:28:13;;;;;;;0.10;0.10;;;20.30;99.90;;;;;;5059243;28;20621;-87
2023/07/02 04:30:39;;;;;;;0.10;0.10;;;20.30;99.90;;;;;;5059639;28;20005;-84
2023/07/02 04:33:05;;;;;;;0.35;0.35;;;20.30;99.90;;;;;;5059678;28;20579;-86
2023/07/02 04:35:32;;;;;;;0.10;0.10;;;20.30;99.90;;;;;;5059175;28;20107;-87
2023/07/02 04:37:58;;;;;;;0.10;0.10;;;20.30;99.90;;;;;;5059977;28;20568;-86
2023/07/02 04:40:24;;;;;;;0.10;0.10;;;20.30;99.90;;;;;;5059940;28;20670;-84
2023/07/02 04:42:57;;;;;;;0.32;0.30;;;20.40;99.90;;;;;;5059167;28;20036;-87
2023/07/02 04:45:24;;;;;;;0.10;0.10;;;20.40;99.90;;;;;;5059456;28;20081;-84
2023/07/02 04:47:50;;;;;;;0.10;0.10;;;20.40;99.90;;;;;;5059905;28;20021;-85
2023/07/02 04:50:19;;;;;;;0.10;0.10;;;20.50;99.90;;;;;;5041706;28;20070;-81
2023/07/02 04:52:45;;;;;;;0.10;0.10;;;20.40;99.90;;;;;;5041353;28;20040;-79
2023/07/02 04:55:11;;;;;;;2.10;1.67;;;20.50;99.90;;;;;;5059365;28;20032;-80
2023/07/02 04:57:37;;;;;;;0.43;0.43;;;20.50;99.90;;;;;;5059037;28;20020;-87
2023/07/02 05:00:04;;;;;;;9.43;7.78;;;20.50;99.90;;;;;;5059293;28;20021;-78
2023/07/02 05:02:30;;;;;;;0.10;0.10;;;20.50;99.90;;;;;;5058872;28;20660;-83
2023/07/02 05:04:56;;;;;;;3.83;1.17;;;20.50;99.90;;;;;;5062224;28;20040;-85
2023/07/02 05:07:21;;;;;;;0.10;0.10;;;20.50;99.90;;;;;;5065109;28;20039;-78
2023/07/02 05:09:48;;;;;;;0.10;0.10;;;20.40;99.90;;;;;;5065361;28;20082;-83
2023/07/02 05:12:14;;;;;;;0.55;0.55;;;20.40;99.90;;;;;;5045755;28;20107;-82
2023/07/02 05:14:40;;;;;;;0.10;0.10;;;20.30;99.90;;;;;;5061412;28;20112;-87
2023/07/02 05:17:05;;;;;;;0.52;0.52;;;20.20;99.90;;;;;;5060000;28;20040;-87
2023/07/02 05:19:31;;;;;;;0.10;0.10;;;20.30;99.90;;;;;;5061741;28;20471;-84
2023/07/02 05:21:57;;;;;;;3.55;3.25;;;20.20;99.90;;;;;;5060765;28;20021;-85
2023/07/02 05:24:23;;;;;;;0.40;0.40;;;20.30;99.90;;;;;;5059690;28;20047;-73
2023/07/02 05:26:50;;;;;;;0.10;0.10;;;20.30;99.90;;;;;;5059521;28;20013;-87
2023/07/02 05:29:16;;;;;;;1.65;1.55;;;20.40;99.90;;;;;;5059249;28;20016;-83
2023/07/02 05:31:42;;;;;;;0.10;0.10;;;20.00;99.90;;;;;;5040726;28;20013;-74
2023/07/02 05:34:08;;;;;;;0.35;0.35;;;20.60;99.90;;;;;;5059140;28;20126;-85
2023/07/02 05:36:34;;;;;;;0.30;0.30;;;20.60;99.90;;;;;;5062231;28;20035;-86
2023/07/02 05:39:00;;;;;;;1.42;1.20;;;20.80;99.90;;;;;;5063786;28;20090;-73
2023/07/02 05:41:30;;;;;;;0.10;0.10;;;22.30;99.90;;;;;;5063170;28;20020;-79
2023/07/02 05:43:57;;;;;;;0.10;0.10;;;21.00;99.90;;;;;;5063565;28;20081;-85
2023/07/02 05:46:23;;;;;;;0.10;0.10;;;21.00;99.90;;;;;;5045151;28;20025;-88
2023/07/02 05:48:48;;;;;;;0.10;0.10;;;21.10;99.90;;;;;;5063673;28;20023;-83
2023/07/02 05:51:19;;;;;;;0.68;0.68;;;20.80;99.90;;;;;;5063173;28;20017;-77
2023/07/02 05:53:45;;;;;;;0.10;0.10;;;20.90;99.90;;;;;;5062300;28;20029;-84
2023/07/02 05:56:11;;;;;;;0.10;0.10;;;21.00;99.90;;;;;;5062165;28;20110;-73
2023/07/02 05:58:36;;;;;;;0.10;0.10;;;21.00;99.90;;;;;;5062799;28;20059;-84
2023/07/02 06:01:02;;;;;;;0.20;0.20;;;21.10;99.90;;;;;;5044573;28;20040;-84
2023/07/02 06:03:28;;;;;;;0.20;0.20;;;21.10;99.90;;;;;;5062298;28;20094;-84
2023/07/02 06:05:53;;;;;;;0.10;0.10;;;21.20;99.90;;;;;;5061982;28;20021;-84
2023/07/02 06:08:19;;;;;;;1.55;1.25;;;21.10;99.90;;;;;;5062668;28;20028;-80
2023/07/02 06:10:46;;;;;;;0.10;0.10;;;21.10;99.90;;;;;;5062600;28;20021;-85
2023/07/02 06:13:12;;;;;;;0.57;0.57;;;21.00;99.90;;;;;;5062392;28;20027;-82
2023/07/02 06:15:38;;;;;;;0.10;0.10;;;21.10;99.90;;;;;;5062339;28;20578;-86
2023/07/02 06:18:04;;;;;;;0.63;0.63;;;21.10;99.90;;;;;;5062687;28;20075;-82
2023/07/02 06:20:30;;;;;;;0.10;0.10;;;21.10;99.90;;;;;;5061748;28;20679;-85
2023/07/02 06:22:56;;;;;;;0.10;0.10;;;21.10;99.90;;;;;;5061797;28;20279;-82
2023/07/02 06:25:22;;;;;;;0.65;0.65;;;21.20;99.90;;;;;;5061244;28;20056;-80
2023/07/02 06:27:48;;;;;;;0.10;0.10;;;21.10;99.90;;;;;;5061082;28;20037;-84
2023/07/02 06:30:13;;;;;;;0.10;0.10;;;21.10;99.90;;;;;;5043104;28;20605;-77
2023/07/02 06:32:40;;;;;;;0.30;0.30;;;21.20;99.90;;;;;;5060463;28;20025;-73
2023/07/02 06:35:06;;;;;;;0.10;0.10;;;21.20;99.90;;;;;;5061035;28;20089;-76
2023/07/02 06:37:32;;;;;;;0.80;0.80;;;21.10;99.90;;;;;;5060304;28;20275;-73
2023/07/02 06:39:58;;;;;;;0.28;0.28;;;21.30;99.90;;;;;;5060669;28;20033;-73
2023/07/02 06:42:24;;;;;;;0.20;0.20;;;21.40;99.90;;;;;;5060648;28;20013;-73
2023/07/02 06:44:50;;;;;;;0.20;0.20;;;21.50;99.90;;;;;;5060237;28;20066;-72
2023/07/02 06:47:16;;;;;;;0.98;0.98;;;21.60;99.90;;;;;;5058465;28;20032;-71
2023/07/02 06:49:42;;;;;;;0.10;0.10;;;21.70;99.90;;;;;;5043674;28;20020;-72
2023/07/02 06:52:08;;;;;;;0.10;0.10;;;21.70;99.90;;;;;;5061223;28;20024;-73
2023/07/02 06:54:34;;;;;;;0.80;0.80;;;21.80;99.90;;;;;;5063926;28;20021;-72
2023/07/02 06:57:00;;;;;;;0.10;0.10;;;21.30;99.90;;;;;;5061670;28;20008;-72
2023/07/02 06:59:26;;;;;;;0.10;0.10;;;20.80;99.90;;;;;;5060815;28;20503;-73
2023/07/02 07:01:52;;;;;;;0.10;0.10;;;;;;;;;;5042829;28;20048;-72
2023/07/02 07:04:18;;;;;;;0.10;0.10;;;21.10;99.90;;;;;;5060664;28;20066;-73
2023/07/02 07:06:44;;;;;;;0.10;0.10;;;21.40;99.90;;;;;;5060337;28;20730;-72
2023/07/02 07:09:10;;;;;;;0.88;0.88;;;21.50;99.90;;;;;;5060151;28;20100;-74
2023/07/02 07:11:37;;;;;;;0.10;0.10;;;21.60;99.90;;;;;;5060342;28;20051;-73
2023/07/02 07:14:03;;;;;;;1.55;1.20;;;21.70;99.90;;;;;;5059896;28;20575;-73
2023/07/02 07:16:29;;;;;;;0.10;0.10;;;21.80;99.90;;;;;;5041132;28;20529;-73
2023/07/02 07:18:54;;;;;;;0.15;0.15;;;21.80;99.90;;;;;;5059797;28;20598;-73
2023/07/02 07:21:20;;;;;;;0.10;0.10;;;21.90;99.90;;;;;;5061134;28;20059;-73
2023/07/02 07:23:46;;;;;;;0.25;0.25;;;23.50;99.90;;;;;;5042129;28;20124;-72
2023/07/02 07:26:12;;;;;;;0.10;0.10;;;21.90;99.90;;;;;;5060049;28;20078;-73
2023/07/02 07:28:37;;;;;;;0.20;0.20;;;21.70;99.90;;;;;;5042786;28;20051;-77
2023/07/02 07:31:06;;;;;;;0.70;0.63;;;21.80;99.90;;;;;;5043476;28;20020;-73
2023/07/02 07:33:32;;;;;;;0.32;0.32;;;21.90;99.90;;;;;;5063176;28;20107;-74
2023/07/02 07:35:58;;;;;;;0.32;0.32;;;21.90;99.90;;;;;;5060698;28;20294;-83
2023/07/02 07:38:23;;;;;;;1.15;1.05;;;21.80;99.90;;;;;;5061084;28;20028;-85
2023/07/02 07:40:49;;;;;;;0.20;0.20;;;21.90;99.90;;;;;;5060217;28;20717;-79
2023/07/02 07:43:15;;;;;;;0.10;0.10;;;22.20;99.90;;;;;;5059863;28;20029;-73
2023/07/02 07:45:40;;;;;;;0.10;0.10;;;22.40;99.90;;;;;;5041796;28;20716;-84
2023/07/02 07:48:06;;;;;;;0.10;0.10;;;22.40;99.90;;;;;;5061824;28;20655;-83
2023/07/02 07:50:32;;;;;;;0.30;0.30;;;22.40;99.90;;;;;;5060856;28;20054;-83
2023/07/02 07:52:58;;;;;;;0.20;0.20;;;22.30;99.90;;;;;;5063976;28;20025;-86
2023/07/02 07:55:24;;;;;;;0.10;0.10;;;22.20;99.90;;;;;;5061325;28;20082;-81
2023/07/02 07:57:50;;;;;;;0.10;0.10;;;22.20;99.90;;;;;;5060426;28;20678;-77
2023/07/02 08:00:17;;;;;;;0.10;0.10;;;22.20;99.90;;;;;;5059756;28;20044;-76
2023/07/02 08:02:43;;;;;;;0.10;0.10;;;22.20;99.90;;;;;;5058174;28;20082;-83
2023/07/02 08:05:09;;;;;;;0.10;0.10;;;22.00;99.90;;;;;;5059949;28;20040;-77
2023/07/02 08:07:35;;;;;;;0.10;0.10;;;22.30;99.90;;;;;;5058967;28;20025;-73
2023/07/02 08:10:02;;;;;;;0.30;0.30;;;22.50;99.90;;;;;;5058632;28;20054;-80
2023/07/02 08:12:29;;;;;;;0.73;0.73;;;22.70;99.90;;;;;;5058363;28;20685;-82
2023/07/02 08:14:55;;;;;;;0.28;0.28;;;22.50;99.90;;;;;;5058762;28;20120;-84
2023/07/02 08:17:21;;;;;;;0.00;0.00;;;22.70;99.90;;;;;;5058286;28;20017;-82
2023/07/02 08:19:47;;;;;;;0.17;0.17;;;22.60;99.90;;;;;;5054263;28;20024;-74
2023/07/02 08:22:13;;;;;;;0.20;0.20;;;22.70;99.90;;;;;;5041756;28;20021;-73
2023/07/02 08:24:39;;;;;;;0.20;0.20;;;22.90;99.90;;;;;;5038478;28;20079;-75
2023/07/02 08:27:05;;;;;;;0.10;0.10;;;23.10;99.90;;;;;;5040274;28;20021;-83
2023/07/02 08:29:31;;;;;;;1.40;1.30;;;23.10;99.90;;;;;;5041373;28;20025;-78
2023/07/02 08:31:57;;;;;;;0.65;0.65;;;22.80;99.90;;;;;;5039680;28;20051;-84
2023/07/02 08:34:23;;;;;;;0.15;0.15;;;22.10;99.90;;;;;;5039867;28;20033;-80
2023/07/02 08:36:48;;;;;;;0.10;0.10;;;22.60;99.90;;;;;;5038997;28;20569;-83
2023/07/02 08:39:15;;;;;;;1.02;0.98;;;22.50;99.90;;;;;;5038496;28;20025;-86
2023/07/02 08:41:48;;;;;;;0.10;0.10;;;23.00;99.90;;;;;;5039315;28;20088;-83
2023/07/02 08:44:15;;;;;;;0.10;0.10;;;22.80;99.90;;;;;;5039604;28;20083;-84
2023/07/02 08:46:42;;;;;;;0.38;0.38;;;23.00;99.90;;;;;;5020883;28;20559;-86
2023/07/02 08:49:08;;;;;;;0.20;0.20;;;23.10;99.90;;;;;;5038830;28;20104;-82
2023/07/02 08:51:35;;;;;;;0.10;0.10;;;23.50;99.90;;;;;;5021453;28;20021;-84
2023/07/02 08:54:02;;;;;;;0.63;0.63;;;23.20;99.90;;;;;;5024176;28;20033;-84
2023/07/02 08:56:27;;;;;;;0.20;0.20;;;23.00;99.90;;;;;;5041836;28;20028;-83
2023/07/02 08:58:53;;;;;;;7.03;1.08;;;23.30;99.90;;;;;;5039595;28;20024;-82
2023/07/02 09:01:19;;;;;;;0.10;0.10;;;23.40;99.90;;;;;;5050205;28;20114;-83
2023/07/02 09:03:45;;;;;;;0.45;0.45;;;23.60;99.90;;;;;;5058627;28;20695;-82
2023/07/02 09:06:12;;;;;;;0.10;0.10;;;23.80;99.90;;;;;;5058598;28;20028;-82
2023/07/02 09:08:38;;;;;;;1.05;1.02;;;23.80;99.90;;;;;;5058353;28;20032;-74
2023/07/02 09:11:19;;;;;;;0.10;0.10;;;24.10;99.90;;;;;;5039502;28;20695;-73
2023/07/02 09:13:50;;;;;;;0.05;0.05;;;24.40;99.90;;;;;;5040735;28;20041;-74
2023/07/02 09:16:29;;;;;;;0.10;0.10;;;24.60;99.90;;;;;;5057741;28;20104;-73
2023/07/02 09:19:07;;;;;;;0.20;0.20;;;24.50;99.90;;;;;;5058898;28;20025;-83
2023/07/02 09:21:47;;;;;;;1.85;1.75;;;24.80;99.90;;;;;;5058193;28;20009;-75
2023/07/02 09:24:21;;;;;;;0.30;0.30;;;24.60;99.90;;;;;;5036818;28;20021;-81
2023/07/02 09:26:49;;;;;;;0.10;0.10;;;24.70;99.90;;;;;;5037771;28;20017;-73
2023/07/02 09:29:28;;;;;;;0.28;0.28;;;25.10;99.90;;;;;;5037766;28;20029;-78
2023/07/02 09:31:55;;;;;;;0.35;0.30;;;25.80;99.90;;;;;;5037644;28;20092;-73
2023/07/02 09:34:31;;;;;;;0.10;0.10;;;25.30;99.90;;;;;;5037895;28;20041;-76
2023/07/02 09:36:57;;;;;;;0.15;0.15;;;24.70;99.90;;;;;;5040516;28;20032;-76
2023/07/02 09:39:29;;;;;;;0.43;0.43;;;24.40;99.90;;;;;;5040946;28;20108;-76
2023/07/02 09:41:59;;;;;;;0.30;0.30;;;24.20;99.90;;;;;;5040452;28;20067;-80
2023/07/02 09:44:29;;;;;;;0.90;0.45;;;23.90;99.90;;;;;;5038568;28;20651;-87
2023/07/02 09:47:06;;;;;;;0.38;0.38;;;23.80;99.90;;;;;;5038116;28;20028;-86
2023/07/02 09:49:36;;;;;;;0.20;0.20;;;23.80;99.90;;;;;;5037836;28;20037;-73
2023/07/02 09:52:07;;;;;;;0.10;0.10;;;23.70;99.90;;;;;;5038540;28;20048;-81
2023/07/02 09:54:33;;;;;;;0.10;0.10;;;24.10;99.90;;;;;;5038087;28;20032;-85
2023/07/02 09:57:00;;;;;;;0.10;0.10;;;24.30;99.90;;;;;;5038833;28;20020;-84
2023/07/02 09:59:26;;;;;;;0.10;0.10;;;24.40;99.90;;;;;;5038987;28;20025;-87
2023/07/02 10:01:52;;;;;;;0.20;0.20;;;24.80;99.90;;;;;;5038618;28;20104;-82
2023/07/02 10:04:19;;;;;;;0.22;0.22;;;25.20;99.70;;;;;;5054767;28;20718;-81
2023/07/02 10:06:55;;;;;;;1.05;1.05;;;25.30;99.60;;;;;;5040678;28;20119;-79
2023/07/02 10:09:42;;;;;;;0.57;0.55;;;25.40;99.20;;;;;;5026085;28;20020;-87
2023/07/02 10:12:27;;;;;;;0.70;0.70;;;25.70;99.30;;;;;;5059185;28;20033;-87
2023/07/02 10:14:54;;;;;;;0.10;0.10;;;25.80;98.20;;;;;;5058684;28;20033;-85
2023/07/02 10:17:34;;;;;;;0.10;0.10;;;25.80;97.10;;;;;;5059925;28;20025;-89
2023/07/02 10:20:06;;;;;;;0.10;0.10;;;25.90;97.80;;;;;;5041907;28;20097;-86
2023/07/02 10:22:53;;;;;;;0.10;0.10;;;26.10;97.90;;;;;;5060838;28;20102;-85
2023/07/02 10:25:26;;;;;;;0.10;0.10;;;26.10;97.50;;;;;;5061445;28;20108;-74
2023/07/02 10:27:52;;;;;;;1.02;0.82;;;26.10;97.40;;;;;;5045501;28;20044;-80
2023/07/02 10:30:18;;;;;;;0.10;0.10;;;26.20;97.50;;;;;;5044550;28;20633;-73
2023/07/02 10:32:43;;;;;;;1.02;0.82;;;26.50;97.20;;;;;;5061292;28;20025;-73
2023/07/02 10:35:16;;;;;;;0.82;0.80;;;26.70;96.20;;;;;;5059706;28;20033;-71
2023/07/02 10:37:43;;;;;;;0.10;0.10;;;26.80;95.90;;;;;;5059717;28;20028;-70
2023/07/02 10:40:10;;;;;;;0.00;0.00;;;26.90;95.80;;;;;;5059931;28;20029;-72
2023/07/02 10:42:50;;;;;;;0.00;0.00;;;27.00;96.60;;;;;;5041844;28;20021;-74
2023/07/02 10:45:16;;;;;;;6.03;1.88;;;27.10;96.40;;;;;;5041966;28;20017;-78
2023/07/02 10:47:42;;;;;;;0.43;0.43;;;26.20;95.60;;;;;;5059338;28;20030;-80
2023/07/02 10:50:22;;;;;;;3.08;1.80;;;26.70;95.30;;;;;;5059717;28;20697;-69
2023/07/02 10:52:51;;;;;;;0.30;0.30;;;26.40;95.40;;;;;;5059867;28;20033;-74
2023/07/02 10:55:21;;;;;;;1.85;1.25;;;26.20;95.00;;;;;;5060776;28;20033;-81
2023/07/02 10:57:50;;;;;;;0.25;0.25;;;26.70;95.60;;;;;;5061327;28;20025;-76
2023/07/02 11:00:17;;;;;;;0.10;0.10;;;25.80;96.00;;;;;;5043334;28;20108;-79
2023/07/02 11:02:42;;;;;;;0.00;0.00;;;25.70;96.30;;;;;;5060170;28;20120;-87
2023/07/02 11:05:12;;;;;;;0.47;0.47;;;25.70;96.90;;;;;;5060208;28;20104;-85
2023/07/02 11:07:42;;;;;;;0.98;0.52;;;25.60;97.10;;;;;;5043572;28;20021;-87
2023/07/02 11:10:09;;;;;;;0.10;0.10;;;25.70;96.90;;;;;;5060641;28;20032;-84
2023/07/02 11:12:36;;;;;;;0.10;0.10;;;25.50;97.70;;;;;;5061232;28;20276;-85
2023/07/02 11:15:13;;;;;;;0.00;0.00;;;25.40;96.90;;;;;;5060784;28;20114;-74
2023/07/02 11:17:41;;;;;;;0.10;0.10;;;25.60;96.50;;;;;;5062236;28;20047;-75
2023/07/02 11:20:08;;;;;;;0.20;0.20;;;25.70;95.50;;;;;;5068275;28;20080;-84
2023/07/02 11:22:35;;;;;;;0.10;0.10;;;25.70;95.20;;;;;;5056418;28;20545;-83
2023/07/02 11:25:14;;;;;;;0.45;0.45;;;25.70;95.70;;;;;;5071967;28;20024;-84
2023/07/02 11:27:40;;;;;;;0.10;0.10;;;25.70;95.60;;;;;;5066911;28;20213;-84
2023/07/02 11:30:07;;;;;;;0.00;0.00;;;25.80;95.80;;;;;;5066857;28;20020;-82
2023/07/02 11:32:52;;;;;;;0.00;0.00;;;25.90;95.60;;;;;;5049631;28;20093;-81
2023/07/02 11:35:18;;;;;;;0.10;0.10;;;25.50;95.60;;;;;;5048429;28;20449;-77
2023/07/02 11:37:45;;;;;;;0.10;0.10;;;25.70;95.30;;;;;;5064514;28;20020;-79
2023/07/02 11:40:12;;;;;;;0.75;0.75;;;26.00;95.60;;;;;;5065211;28;20024;-81
2023/07/02 11:42:38;;;;;;;0.30;0.30;;;26.10;96.30;;;;;;5066300;28;20036;-76
2023/07/02 11:45:04;;;;;;;0.10;0.10;;;26.10;97.20;;;;;;5065233;28;20025;-89
2023/07/02 11:47:30;;;;;;;1.27;0.70;;;26.00;96.30;;;;;;5062740;28;20418;-73
2023/07/02 11:49:56;;;;;;;0.00;0.00;;;26.10;96.40;;;;;;5061661;28;20017;-76
2023/07/02 11:52:22;;;;;;;0.10;0.10;;;26.20;96.50;;;;;;5064188;28;20659;-84
2023/07/02 11:54:48;;;;;;;0.93;0.85;;;26.40;97.80;;;;;;5064377;28;20028;-84
2023/07/02 11:57:14;;;;;;;0.20;0.20;;;26.60;97.50;;;;;;5061852;28;20016;-73
2023/07/02 11:59:41;;;;;;;0.85;0.52;;;26.60;97.60;;;;;;5061273;28;20025;-80
2023/07/02 12:02:07;;;;;;;0.15;0.15;;;26.80;97.60;;;;;;5060295;28;20032;-74
2023/07/02 12:04:32;;;;;;;0.10;0.10;;;26.90;97.60;;;;;;5058662;28;20055;-73
2023/07/02 12:07:01;;;;;;;0.47;0.47;;;27.10;98.00;;;;;;5041096;28;20036;-84
2023/07/02 12:09:27;;;;;;;0.05;0.05;;;27.30;97.50;;;;;;5040734;28;20698;-74
2023/07/02 12:11:53;;;;;;;0.17;0.17;;;27.40;96.90;;;;;;5058570;28;20025;-73
2023/07/02 12:14:19;;;;;;;0.47;0.47;;;27.60;97.20;;;;;;5058587;28;20028;-73
2023/07/02 12:16:45;;;;;;;0.20;0.20;;;27.70;96.60;;;;;;5058672;28;20024;-75
2023/07/02 12:19:10;;;;;;;0.00;0.00;;;27.80;97.10;;;;;;5059298;28;20020;-77
2023/07/02 12:21:36;;;;;;;1.08;0.63;;;27.90;97.00;;;;;;5059582;28;20743;-79
2023/07/02 12:24:08;;;;;;;0.63;0.52;;;30.80;97.20;;;;;;5059499;28;20125;-81
2023/07/02 12:26:34;;;;;;;0.10;0.10;;;29.00;95.80;;;;;;5058854;28;20012;-76
2023/07/02 12:29:00;;;;;;;0.75;0.70;;;29.90;94.90;;;;;;5058482;28;20024;-83
2023/07/02 12:31:25;;;;;;;0.85;0.30;;;30.70;94.00;;;;;;5058060;28;20016;-80
2023/07/02 12:33:51;;;;;;;0.45;0.45;;;31.20;92.40;;;;;;5059109;28;20029;-84
2023/07/02 12:36:17;;;;;;;0.20;0.20;;;30.80;91.60;;;;;;5058399;28;20146;-79
2023/07/02 12:38:42;;;;;;;0.50;0.50;;;30.80;90.20;;;;;;5058708;28;20701;-73
2023/07/02 12:41:08;;;;;;;0.65;0.65;;;30.70;90.10;;;;;;5058863;28;20721;-74
2023/07/02 12:43:34;;;;;;;0.13;0.13;;;30.40;92.00;;;;;;5058347;28;20684;-76
2023/07/02 12:46:00;;;;;;;0.85;0.77;;;28.90;91.60;;;;;;5058314;28;20016;-76
2023/07/02 12:48:26;;;;;;;0.85;0.60;;;28.80;91.80;;;;;;5040510;28;20686;-74